Portada
METAR-TAF:

METAR-TAF

Aeropuertos :

Aeropuerto de Vitoria

Vitoria, España

latitud: 42-53N, longitud: 002-43W, altitud: 513 m

Observación

El informe se hizo hace 17 minutos, a las 13:00 UTC
Viento 3 kt del norte, variando entre oeste-noroeste y noreste
Temperatura 2°C
Humedad 100%
Presión 1034 hPa
Visibilidad: 4000 m
Nubes dispersas a una altura de 200 ft
neblina

METAR: LEVT 031300Z 36003KT 300V050 4000 BR SCT002 02/02 Q1034

Hora: 14:17 (13:17 UTC)

Pronóstico

El informe se hizo hace 2 horas y 17 minutos, a las 11:00 UTC
Pronóstico válido del 03 a las 12 UTC al 04 a las 12 UTC
Viento 9 kt del norte-noreste
Visibilidad 10 km o más
sin nubes por debajo de 1500 m y sin presencia de cumulonimbus.
Probabilidad 30% :
Temporalmente
del 04 a las 00 UTC al 04 a las 10 UTC
Visibilidad: 3000 m
Cielo nuboso a una altura de 500 ft
neblina, niebla en bancos

TAF: LEVT 031100Z 0312/0412 02009KT CAVOK TX11/0314Z TNM04/0407Z PROB30 TEMPO 0400/0410 3000 BR BCFG BKN005

Observaciones y pronósticos meteorológicos de más de 4000 aeropuertos (mensajes METAR y TAF).

Los puntos amarillos y rojos representan las estaciones disponibles.

Ponga el ratón en el punto deseado para ver el nombre de la estación.

Haga clic para ver las observaciones y los pronósticos meteorológicos.

Para cambiar el mapa : haga clic en los botones verdes con una cruz de color negro para hacer un zoom, en el botón verde con un guión para alejar o en las flechas verdes para mapas adyacentes.


METAR-TAF: